Terminal Aerodrome Forecast
Issued by NWS Denver/Boulder, CO

Home | Current Version | Previous Version | Text Only | Print | Product List | Glossary On
Versions: 1 2 3 4 5 6 7 8 9 10 11 12 13 14 15 16 17 18 19 20 21 22 23 24 25 26 27 28 29 30 31 32 33 34 35 36 37 38 39 40 41 42 43 44 45 46 47 48 49 50
000
FTUS45 KBOU 030539
TAFDEN
TAF
KDEN 030539Z 0306/0412 24008KT 5SM HZ FEW060 BKN250
     FM030800 24012KT P6SM BKN200
     FM031100 01015G22KT P6SM SCT020 SCT120 BKN200
     FM031400 04013KT P6SM VCSH SCT008 OVC020
      TEMPO 0319/0322 3SM -SN OVC008
     FM032200 07014KT 4SM -SN BR SCT008 OVC020
     FM040100 03012KT 1SM -SN BR SCT005 BKN008 OVC020
     FM040600 06008KT 3/4SM -SN BR BKN005 OVC008=

USA.gov is the U.S. government's official web portal to all federal, state and local government web resources and services.